Terminal Aerodrome Forecast
Issued by NWS Bismarck, ND

Home | Current Version | Previous Version | Text Only | Print | Product List | Glossary Off
Versions: 1 2 3 4 5 6 7 8 9 10 11 12 13 14

000
FTUS43 KBIS 270154 AAA
TAFISN
TAF AMD
KISN 270154Z 2702/2724 15004KT P6SM FEW110
     FM270330 18004KT P6SM BKN110
     FM271000 24008KT P6SM FEW120
     FM271500 30011KT P6SM FEW100
     FM271800 33015G21KT P6SM SKC=

USA.gov is the U.S. government's official web portal to all federal, state and local government web resources and services.